Time;durP1;ratioP1;P1;durP2;ratioP2;P2;SDS_P1;SDS_P2;PMS_P1;PMS_P2;Temp;Humidity;BMP_temperature;BMP_pressure;BME280_temperature;BME280_humidity;BME280_pressure;Samples;Min_cycle;Max_cycle;Signal;HPM_P1;HPM_P2
2023/02/04 00:01:54;;;;;;;;;;;20.60;50.40;;;;;;1542921;75;714;-69
2023/02/04 00:03:56;;;;;;;;;;;20.60;50.40;;;;;;1532787;77;578;-67
2023/02/04 00:05:57;;;;;;;;;;;20.60;50.50;;;;;;1532687;77;742;-67
2023/02/04 00:07:59;;;;;;;;;;;20.50;50.60;;;;;;1535008;77;765;-66
2023/02/04 00:10:01;;;;;;;;;;;20.50;50.80;;;;;;1544907;76;1130;-69
2023/02/04 00:12:03;;;;;;;;;;;20.50;51.00;;;;;;1547355;75;740;-66
2023/02/04 00:14:06;;;;;;;;;;;20.50;51.00;;;;;;1545870;75;1939;-66
2023/02/04 00:16:08;;;;;;;;;;;20.50;51.10;;;;;;1527436;77;701;-66
2023/02/04 00:18:10;;;;;;;;;;;20.50;51.20;;;;;;1550781;75;762;-66
2023/02/04 00:20:12;;;;;;;;;;;20.40;51.10;;;;;;1529293;75;1210;-65
2023/02/04 00:22:14;;;;;;;;;;;20.40;51.20;;;;;;1554803;75;586;-66
2023/02/04 00:24:16;;;;;;;;;;;20.50;51.30;;;;;;1540636;76;629;-66
2023/02/04 00:26:18;;;;;;;;;;;20.50;51.10;;;;;;1533568;75;717;-67
2023/02/04 00:28:20;;;;;;;;;;;20.50;51.10;;;;;;1535732;75;1442;-68
2023/02/04 00:30:21;;;;;;;;;;;20.60;51.20;;;;;;1540758;75;1097;-65
2023/02/04 00:32:23;;;;;;;;;;;20.50;51.10;;;;;;1538796;76;686;-65
2023/02/04 00:34:25;;;;;;;;;;;20.50;51.00;;;;;;1553755;75;1920;-66
2023/02/04 00:36:27;;;;;;;;;;;20.50;51.30;;;;;;1531957;75;706;-66
2023/02/04 00:38:29;;;;;;;;;;;20.50;51.20;;;;;;1541711;75;1131;-66
2023/02/04 00:40:31;;;;;;;;;;;20.50;51.30;;;;;;1547858;73;3053;-71
2023/02/04 00:42:33;;;;;;;;;;;20.50;51.30;;;;;;1530342;75;701;-71
2023/02/04 00:44:35;;;;;;;;;;;20.50;51.30;;;;;;1535962;77;793;-69
2023/02/04 00:46:37;;;;;;;;;;;20.50;51.30;;;;;;1537255;76;797;-68
2023/02/04 00:48:39;;;;;;;;;;;20.50;51.30;;;;;;1545606;75;780;-68
2023/02/04 00:50:41;;;;;;;;;;;20.50;51.30;;;;;;1546163;75;1179;-69
2023/02/04 00:52:42;;;;;;;;;;;20.50;51.20;;;;;;1550908;75;790;-68
2023/02/04 00:54:44;;;;;;;;;;;20.50;51.20;;;;;;1553514;75;1943;-69
2023/02/04 00:56:46;;;;;;;;;;;20.50;51.20;;;;;;1530585;76;711;-69
2023/02/04 00:58:48;;;;;;;;;;;20.50;51.20;;;;;;1566291;76;786;-69
2023/02/04 01:00:50;;;;;;;;;;;20.50;51.20;;;;;;1559440;75;1133;-69
2023/02/04 01:02:52;;;;;;;;;;;20.60;51.20;;;;;;1551831;74;783;-69
2023/02/04 01:04:55;;;;;;;;;;;20.50;51.10;;;;;;1533149;76;718;-67
2023/02/04 01:06:57;;;;;;;;;;;20.50;51.20;;;;;;1544843;76;825;-69
2023/02/04 01:09:00;;;;;;;;;;;20.50;51.20;;;;;;1540235;76;1097;-71
2023/02/04 01:11:02;;;;;;;;;;;20.50;51.10;;;;;;1537169;76;734;-70
2023/02/04 01:13:04;;;;;;;;;;;20.60;51.30;;;;;;1538865;76;768;-70
2023/02/04 01:15:06;;;;;;;;;;;20.50;51.30;;;;;;1533336;76;1943;-70
2023/02/04 01:17:08;;;;;;;;;;;20.50;51.30;;;;;;1527053;76;778;-68
2023/02/04 01:19:09;;;;;;;;;;;20.50;51.30;;;;;;1556501;74;1125;-69
2023/02/04 01:21:11;;;;;;;;;;;20.50;51.30;;;;;;1537677;76;717;-69
2023/02/04 01:23:13;;;;;;;;;;;20.50;51.30;;;;;;1538999;76;786;-69
2023/02/04 01:25:15;;;;;;;;;;;20.60;51.40;;;;;;1530581;76;1305;-67
2023/02/04 01:27:17;;;;;;;;;;;20.50;51.40;;;;;;1537764;76;746;-69
2023/02/04 01:29:19;;;;;;;;;;;20.50;51.40;;;;;;1528686;76;1152;-68
2023/02/04 01:31:21;;;;;;;;;;;20.50;51.50;;;;;;1537187;76;761;-68
2023/02/04 01:33:22;;;;;;;;;;;20.60;51.40;;;;;;1553331;75;726;-69
2023/02/04 01:35:24;;;;;;;;;;;20.50;51.50;;;;;;1536794;76;1944;-68
2023/02/04 01:37:26;;;;;;;;;;;20.50;51.50;;;;;;1553643;75;720;-69
2023/02/04 01:39:28;;;;;;;;;;;20.50;51.50;;;;;;1537559;76;1149;-71
2023/02/04 01:41:30;;;;;;;;;;;20.50;51.50;;;;;;1564430;74;761;-71
2023/02/04 01:43:32;;;;;;;;;;;20.50;51.60;;;;;;1548884;75;718;-71
2023/02/04 01:45:34;;;;;;;;;;;20.50;51.70;;;;;;1557356;74;746;-70
2023/02/04 01:47:36;;;;;;;;;;;20.50;51.80;;;;;;1558810;74;781;-72
2023/02/04 01:49:38;;;;;;;;;;;20.50;52.10;;;;;;1560774;74;1174;-71
2023/02/04 01:51:40;;;;;;;;;;;20.50;52.10;;;;;;1539043;76;659;-70
2023/02/04 01:53:42;;;;;;;;;;;20.40;52.00;;;;;;1535851;76;782;-70
2023/02/04 01:55:43;;;;;;;;;;;20.40;52.00;;;;;;1535185;75;1928;-71
2023/02/04 01:57:45;;;;;;;;;;;20.50;52.00;;;;;;1550319;76;692;-71
2023/02/04 01:59:47;;;;;;;;;;;20.40;51.90;;;;;;1537072;76;1158;-71
2023/02/04 02:01:52;;;;;;;;;;;20.50;52.00;;;;;;1550727;76;680;-72
2023/02/04 02:03:54;;;;;;;;;;;20.40;51.90;;;;;;1542643;76;897;-70
2023/02/04 02:05:56;;;;;;;;;;;20.40;51.90;;;;;;1551678;76;772;-70
2023/02/04 02:07:58;;;;;;;;;;;20.50;51.90;;;;;;1551605;76;773;-71
2023/02/04 02:10:00;;;;;;;;;;;20.50;52.00;;;;;;1550969;75;1171;-71
2023/02/04 02:12:02;;;;;;;;;;;20.50;51.90;;;;;;1548965;76;785;-69
2023/02/04 02:14:04;;;;;;;;;;;20.50;52.00;;;;;;1543466;76;1935;-70
2023/02/04 02:16:05;;;;;;;;;;;20.50;52.00;;;;;;1547515;76;722;-70
2023/02/04 02:18:07;;;;;;;;;;;20.50;52.00;;;;;;1551102;76;723;-70
2023/02/04 02:20:10;;;;;;;;;;;20.50;52.00;;;;;;1545596;76;1147;-69
2023/02/04 02:22:13;;;;;;;;;;;20.50;52.00;;;;;;1548843;75;1578;-68
2023/02/04 02:24:28;;;;;;;;;;;20.50;52.00;;;;;;1547423;76;1817;-70
2023/02/04 02:26:30;;;;;;;;;;;20.50;52.00;;;;;;1532699;76;813;-69
2023/02/04 02:28:32;;;;;;;;;;;20.50;52.10;;;;;;1551585;76;701;-69
2023/02/04 02:30:34;;;;;;;;;;;20.50;52.10;;;;;;1544490;75;1155;-70
2023/02/04 02:32:36;;;;;;;;;;;20.50;52.10;;;;;;1548539;76;810;-70
2023/02/04 02:34:38;;;;;;;;;;;20.40;52.00;;;;;;1547781;76;1935;-70
2023/02/04 02:36:40;;;;;;;;;;;20.50;52.10;;;;;;1548695;75;731;-69
2023/02/04 02:38:42;;;;;;;;;;;20.40;52.00;;;;;;1543530;75;727;-69
2023/02/04 02:40:44;;;;;;;;;;;20.50;52.20;;;;;;1548854;75;1143;-69
2023/02/04 02:42:46;;;;;;;;;;;20.50;52.20;;;;;;1550946;76;657;-70
2023/02/04 02:44:48;;;;;;;;;;;20.40;52.10;;;;;;1545276;76;717;-69
2023/02/04 02:46:50;;;;;;;;;;;20.50;52.20;;;;;;1542964;76;734;-69
2023/02/04 02:48:52;;;;;;;;;;;20.50;52.20;;;;;;1550005;76;769;-69
2023/02/04 02:50:54;;;;;;;;;;;20.50;52.20;;;;;;1551361;75;1168;-70
2023/02/04 02:52:56;;;;;;;;;;;20.50;52.30;;;;;;1551985;75;811;-70
2023/02/04 02:54:58;;;;;;;;;;;20.50;52.30;;;;;;1550219;76;1951;-69
2023/02/04 02:56:59;;;;;;;;;;;20.40;52.20;;;;;;1548581;76;724;-70
2023/02/04 02:59:09;;;;;;;;;;;20.40;52.20;;;;;;1545180;75;1185;-69
2023/02/04 03:01:11;;;;;;;;;;;20.50;52.30;;;;;;1535100;76;1308;-69
2023/02/04 03:03:17;;;;;;;;;;;20.40;52.20;;;;;;1540587;76;730;-70
2023/02/04 03:05:19;;;;;;;;;;;20.40;52.30;;;;;;1544156;76;709;-69
2023/02/04 03:07:21;;;;;;;;;;;20.40;52.30;;;;;;1551518;75;703;-70
2023/02/04 03:09:23;;;;;;;;;;;20.40;52.30;;;;;;1549019;75;1162;-70
2023/02/04 03:11:28;;;;;;;;;;;20.50;52.50;;;;;;1541460;76;732;-69
2023/02/04 03:13:28;;;;;;;;;;;20.40;53.20;;;;;;1547084;76;1663;-68
2023/02/04 03:15:30;;;;;;;;;;;20.20;52.90;;;;;;1551579;76;1942;-68
2023/02/04 03:17:33;;;;;;;;;;;20.20;53.30;;;;;;1546141;76;1567;-69
2023/02/04 03:19:35;;;;;;;;;;;20.20;53.40;;;;;;1549998;75;1102;-68
2023/02/04 03:21:38;;;;;;;;;;;20.20;53.70;;;;;;1551583;75;798;-68
2023/02/04 03:23:40;;;;;;;;;;;20.30;53.50;;;;;;1541438;76;687;-69
2023/02/04 03:25:42;;;;;;;;;;;20.30;53.40;;;;;;1543838;76;838;-69
2023/02/04 03:27:44;;;;;;;;;;;20.40;53.30;;;;;;1546015;76;725;-69
2023/02/04 03:29:45;;;;;;;;;;;20.30;53.10;;;;;;1550609;75;1141;-69
2023/02/04 03:31:47;;;;;;;;;;;20.40;53.00;;;;;;1551715;76;746;-69
2023/02/04 03:33:49;;;;;;;;;;;20.30;53.00;;;;;;1551434;76;714;-69
2023/02/04 03:35:51;;;;;;;;;;;20.40;52.90;;;;;;1553141;75;1955;-69
2023/02/04 03:37:53;;;;;;;;;;;20.40;52.80;;;;;;1534774;76;732;-69
2023/02/04 03:39:55;;;;;;;;;;;20.40;52.80;;;;;;1550214;75;1144;-70
2023/02/04 03:41:57;;;;;;;;;;;20.40;52.80;;;;;;1551511;76;774;-71
2023/02/04 03:43:59;;;;;;;;;;;20.40;52.80;;;;;;1538391;76;734;-68
2023/02/04 03:46:01;;;;;;;;;;;20.50;52.80;;;;;;1536737;76;714;-69
2023/02/04 03:48:03;;;;;;;;;;;20.40;52.80;;;;;;1545834;76;787;-69
2023/02/04 03:50:05;;;;;;;;;;;20.40;52.80;;;;;;1552895;75;1108;-68
2023/02/04 03:52:07;;;;;;;;;;;20.40;52.70;;;;;;1547754;76;724;-70
2023/02/04 03:54:09;;;;;;;;;;;20.40;52.90;;;;;;1546225;76;702;-69
2023/02/04 03:56:11;;;;;;;;;;;20.40;52.80;;;;;;1547299;76;1943;-70
2023/02/04 03:58:12;;;;;;;;;;;20.40;52.80;;;;;;1549613;76;719;-72
2023/02/04 04:00:14;;;;;;;;;;;20.40;52.80;;;;;;1548917;75;1169;-69
2023/02/04 04:02:16;;;;;;;;;;;20.40;52.80;;;;;;1548766;76;736;-70
2023/02/04 04:04:18;;;;;;;;;;;20.40;52.80;;;;;;1554403;75;739;-69
2023/02/04 04:06:20;;;;;;;;;;;20.40;52.90;;;;;;1549814;75;776;-69
2023/02/04 04:08:22;;;;;;;;;;;20.40;52.90;;;;;;1550553;76;758;-70
2023/02/04 04:10:24;;;;;;;;;;;20.40;52.90;;;;;;1547593;75;1148;-69
2023/02/04 04:12:26;;;;;;;;;;;20.40;52.80;;;;;;1540677;76;816;-70
2023/02/04 04:14:28;;;;;;;;;;;20.40;52.70;;;;;;1542231;76;1548;-70
2023/02/04 04:16:29;;;;;;;;;;;20.40;52.70;;;;;;1551517;76;1941;-68
2023/02/04 04:18:31;;;;;;;;;;;20.40;52.70;;;;;;1546553;75;756;-69
2023/02/04 04:20:33;;;;;;;;;;;20.40;52.70;;;;;;1546373;75;1159;-69
2023/02/04 04:22:35;;;;;;;;;;;20.40;52.70;;;;;;1550894;76;790;-68
2023/02/04 04:24:37;;;;;;;;;;;20.40;52.80;;;;;;1547964;76;717;-69
2023/02/04 04:26:39;;;;;;;;;;;20.40;52.80;;;;;;1545845;76;668;-69
2023/02/04 04:28:41;;;;;;;;;;;20.40;52.80;;;;;;1550242;76;783;-70
2023/02/04 04:30:43;;;;;;;;;;;20.40;52.80;;;;;;1549122;75;1128;-69
2023/02/04 04:32:44;;;;;;;;;;;20.30;52.80;;;;;;1546901;75;716;-69
2023/02/04 04:34:46;;;;;;;;;;;20.40;52.70;;;;;;1551656;75;675;-69
2023/02/04 04:36:48;;;;;;;;;;;20.40;52.80;;;;;;1550035;76;1934;-69
2023/02/04 04:38:50;;;;;;;;;;;20.30;52.90;;;;;;1550621;76;971;-66
2023/02/04 04:40:52;;;;;;;;;;;20.30;53.10;;;;;;1527498;76;1180;-66
2023/02/04 04:42:54;;;;;;;;;;;20.30;53.70;;;;;;1535567;76;891;-69
2023/02/04 04:44:56;;;;;;;;;;;20.20;53.80;;;;;;1533053;76;754;-70
2023/02/04 04:46:58;;;;;;;;;;;20.20;54.20;;;;;;1547604;76;802;-68
2023/02/04 04:49:00;;;;;;;;;;;20.20;53.80;;;;;;1552559;75;1172;-70
2023/02/04 04:51:02;;;;;;;;;;;20.30;53.70;;;;;;1540761;76;773;-70
2023/02/04 04:53:04;;;;;;;;;;;20.30;53.50;;;;;;1550200;76;738;-70
2023/02/04 04:55:07;;;;;;;;;;;20.30;53.40;;;;;;1547921;76;1932;-70
2023/02/04 04:57:09;;;;;;;;;;;20.40;53.20;;;;;;1541654;76;727;-69
2023/02/04 04:59:11;;;;;;;;;;;20.30;53.10;;;;;;1551592;75;1187;-70
2023/02/04 05:01:12;;;;;;;;;;;20.40;53.10;;;;;;1550675;76;724;-70
2023/02/04 05:03:14;;;;;;;;;;;20.30;53.10;;;;;;1551189;75;711;-70
2023/02/04 05:05:16;;;;;;;;;;;20.30;53.00;;;;;;1546213;76;702;-71
2023/02/04 05:07:18;;;;;;;;;;;20.40;53.00;;;;;;1534091;76;785;-69
2023/02/04 05:09:20;;;;;;;;;;;20.40;53.00;;;;;;1535133;75;1502;-72
2023/02/04 05:11:22;;;;;;;;;;;20.40;53.00;;;;;;1549555;76;715;-70
2023/02/04 05:13:24;;;;;;;;;;;20.40;52.90;;;;;;1546759;76;739;-70
2023/02/04 05:15:26;;;;;;;;;;;20.40;53.00;;;;;;1551475;76;1943;-70
2023/02/04 05:17:27;;;;;;;;;;;20.40;53.00;;;;;;1549267;75;704;-69
2023/02/04 05:19:29;;;;;;;;;;;20.30;53.00;;;;;;1547638;75;1140;-69
2023/02/04 05:21:31;;;;;;;;;;;20.40;53.00;;;;;;1546864;76;689;-71
2023/02/04 05:23:33;;;;;;;;;;;20.40;53.00;;;;;;1528442;76;732;-72
2023/02/04 05:25:35;;;;;;;;;;;20.40;53.10;;;;;;1550906;76;709;-73
2023/02/04 05:27:37;;;;;;;;;;;20.40;53.20;;;;;;1548095;76;714;-72
2023/02/04 05:29:39;;;;;;;;;;;20.30;53.20;;;;;;1545538;75;1184;-69
2023/02/04 05:31:40;;;;;;;;;;;20.40;53.10;;;;;;1549556;75;714;-71
2023/02/04 05:33:42;;;;;;;;;;;20.30;53.30;;;;;;1545029;76;777;-70
2023/02/04 05:35:44;;;;;;;;;;;20.30;53.30;;;;;;1538713;76;1936;-73
2023/02/04 05:37:46;;;;;;;;;;;20.30;53.20;;;;;;1551470;76;826;-72
2023/02/04 05:39:48;;;;;;;;;;;20.40;53.20;;;;;;1551398;75;1112;-71
2023/02/04 05:41:50;;;;;;;;;;;20.40;53.20;;;;;;1551390;76;745;-71
2023/02/04 05:43:52;;;;;;;;;;;20.30;53.10;;;;;;1545026;76;862;-71
2023/02/04 05:45:53;;;;;;;;;;;20.30;53.10;;;;;;1538232;76;782;-71
2023/02/04 05:47:55;;;;;;;;;;;20.40;53.10;;;;;;1553345;75;791;-72
2023/02/04 05:49:57;;;;;;;;;;;20.30;53.20;;;;;;1549758;75;1183;-72
2023/02/04 05:51:59;;;;;;;;;;;20.40;53.10;;;;;;1549395;76;741;-71
2023/02/04 05:54:01;;;;;;;;;;;20.40;53.20;;;;;;1544252;76;735;-71
2023/02/04 05:56:03;;;;;;;;;;;20.40;53.10;;;;;;1550496;76;1927;-71
2023/02/04 05:58:05;;;;;;;;;;;20.30;53.20;;;;;;1549632;76;707;-71
2023/02/04 06:00:07;;;;;;;;;;;20.30;53.10;;;;;;1546626;75;1183;-71
2023/02/04 06:02:09;;;;;;;;;;;20.30;53.20;;;;;;1543226;75;813;-71
2023/02/04 06:04:11;;;;;;;;;;;20.30;53.10;;;;;;1550323;76;731;-71
2023/02/04 06:06:12;;;;;;;;;;;20.30;53.10;;;;;;1550512;76;1561;-73
2023/02/04 06:08:15;;;;;;;;;;;20.30;53.10;;;;;;1548827;76;731;-72
2023/02/04 06:10:17;;;;;;;;;;;20.30;53.20;;;;;;1542716;75;1137;-71
2023/02/04 06:12:19;;;;;;;;;;;20.30;53.20;;;;;;1547910;76;727;-72
2023/02/04 06:14:21;;;;;;;;;;;20.30;53.20;;;;;;1550569;76;819;-71
2023/02/04 06:16:23;;;;;;;;;;;20.30;53.40;;;;;;1543280;75;1927;-70
2023/02/04 06:18:25;;;;;;;;;;;20.30;53.60;;;;;;1548595;76;775;-64
2023/02/04 06:20:26;;;;;;;;;;;20.30;53.90;;;;;;1550571;75;1112;-64
2023/02/04 06:22:28;;;;;;;;;;;20.20;53.90;;;;;;1551339;76;740;-64
2023/02/04 06:24:30;;;;;;;;;;;20.20;54.00;;;;;;1549369;76;714;-65
2023/02/04 06:26:32;;;;;;;;;;;20.30;54.20;;;;;;1547885;76;752;-66
2023/02/04 06:28:34;;;;;;;;;;;20.20;54.40;;;;;;1547389;76;766;-64
2023/02/04 06:30:36;;;;;;;;;;;20.10;54.50;;;;;;1548747;75;1121;-64
2023/02/04 06:32:38;;;;;;;;;;;20.10;54.60;;;;;;1547677;76;731;-64
2023/02/04 06:34:40;;;;;;;;;;;20.20;54.50;;;;;;1547694;76;765;-64
2023/02/04 06:36:42;;;;;;;;;;;20.20;54.60;;;;;;1548050;76;1943;-63
2023/02/04 06:38:44;;;;;;;;;;;20.20;54.60;;;;;;1548736;76;781;-65
2023/02/04 06:40:52;;;;;;;;;;;20.20;54.70;;;;;;1557497;74;2063;-64
2023/02/04 06:42:52;;;;;;;;;;;20.30;54.80;;;;;;1549831;75;1164;-70
2023/02/04 06:44:54;;;;;;;;;;;20.30;54.70;;;;;;1549286;75;611;-65
2023/02/04 06:46:56;;;;;;;;;;;20.30;54.90;;;;;;1554366;75;728;-67
2023/02/04 06:48:57;;;;;;;;;;;20.20;55.00;;;;;;1565432;75;720;-64
2023/02/04 06:50:59;;;;;;;;;;;20.20;55.20;;;;;;1521081;77;1218;-64
2023/02/04 06:53:01;;;;;;;;;;;20.30;55.20;;;;;;1569361;74;721;-64
2023/02/04 06:55:03;;;;;;;;;;;20.30;55.30;;;;;;1553501;75;716;-65
2023/02/04 06:57:08;;;;;;;;;;;20.30;55.00;;;;;;1551071;75;1933;-64
2023/02/04 06:59:10;;;;;;;;;;;20.30;54.80;;;;;;1545076;75;793;-66
2023/02/04 07:01:12;;;;;;;;;;;20.40;54.60;;;;;;1512395;76;1248;-66
2023/02/04 07:03:14;;;;;;;;;;;20.30;54.40;;;;;;1548710;75;1443;-66
2023/02/04 07:05:16;;;;;;;;;;;20.30;54.30;;;;;;1553833;75;791;-68
2023/02/04 07:07:18;;;;;;;;;;;20.40;54.20;;;;;;1550650;75;715;-67
2023/02/04 07:09:20;;;;;;;;;;;20.40;54.20;;;;;;1543979;75;692;-67
2023/02/04 07:11:21;;;;;;;;;;;20.40;54.20;;;;;;1556174;75;1106;-66
2023/02/04 07:13:23;;;;;;;;;;;20.40;54.20;;;;;;1548715;75;752;-72
2023/02/04 07:15:25;;;;;;;;;;;20.40;54.20;;;;;;1553639;75;782;-66
2023/02/04 07:17:27;;;;;;;;;;;20.40;54.20;;;;;;1551274;75;1929;-66
2023/02/04 07:19:29;;;;;;;;;;;20.40;54.00;;;;;;1554458;75;1075;-68
2023/02/04 07:21:31;;;;;;;;;;;20.40;54.00;;;;;;1546330;75;750;-67
2023/02/04 07:23:33;;;;;;;;;;;20.40;53.90;;;;;;1550247;75;722;-68
2023/02/04 07:25:35;;;;;;;;;;;20.40;53.90;;;;;;1550040;75;790;-69
2023/02/04 07:27:37;;;;;;;;;;;20.40;53.90;;;;;;1544937;75;819;-66
2023/02/04 07:29:38;;;;;;;;;;;20.40;53.90;;;;;;1553045;75;1145;-66
2023/02/04 07:31:40;;;;;;;;;;;20.40;53.90;;;;;;1539746;75;715;-66
2023/02/04 07:33:42;;;;;;;;;;;20.50;53.90;;;;;;1534110;76;688;-68
2023/02/04 07:35:44;;;;;;;;;;;20.40;53.80;;;;;;1527198;75;588;-67
2023/02/04 07:37:46;;;;;;;;;;;20.40;53.80;;;;;;1531341;76;1938;-72
2023/02/04 07:39:48;;;;;;;;;;;20.40;53.80;;;;;;1538549;75;1114;-70
2023/02/04 07:41:50;;;;;;;;;;;20.40;53.80;;;;;;1544120;75;765;-66
2023/02/04 07:43:51;;;;;;;;;;;20.40;53.80;;;;;;1536377;75;747;-66
2023/02/04 07:45:53;;;;;;;;;;;20.40;53.90;;;;;;1539291;75;763;-66
2023/02/04 07:47:55;;;;;;;;;;;20.50;54.00;;;;;;1558273;74;712;-69
2023/02/04 07:49:57;;;;;;;;;;;20.40;53.90;;;;;;1549000;75;1163;-68
2023/02/04 07:51:59;;;;;;;;;;;20.40;53.80;;;;;;1545420;75;739;-68
2023/02/04 07:54:01;;;;;;;;;;;20.40;53.70;;;;;;1541269;75;936;-67
2023/02/04 07:56:03;;;;;;;;;;;20.40;53.70;;;;;;1548079;75;733;-68
2023/02/04 07:58:05;;;;;;;;;;;20.40;53.60;;;;;;1550126;75;1960;-68
2023/02/04 08:00:07;;;;;;;;;;;20.50;53.60;;;;;;1525737;76;1153;-67
2023/02/04 08:02:09;;;;;;;;;;;20.40;53.50;;;;;;1547241;75;740;-66
2023/02/04 08:04:11;;;;;;;;;;;20.40;53.50;;;;;;1533753;76;760;-67
2023/02/04 08:06:13;;;;;;;;;;;20.40;53.40;;;;;;1529571;76;662;-67
2023/02/04 08:08:14;;;;;;;;;;;20.40;53.40;;;;;;1534373;76;703;-66
2023/02/04 08:10:16;;;;;;;;;;;20.40;53.40;;;;;;1533917;76;1134;-68
2023/02/04 08:12:18;;;;;;;;;;;20.50;53.50;;;;;;1531211;76;727;-65
2023/02/04 08:14:20;;;;;;;;;;;20.40;53.40;;;;;;1534366;76;734;-67
2023/02/04 08:16:22;;;;;;;;;;;20.40;53.40;;;;;;1538429;76;1944;-67
2023/02/04 08:18:27;;;;;;;;;;;20.40;53.40;;;;;;1537823;76;756;-66
2023/02/04 08:20:29;;;;;;;;;;;20.40;53.50;;;;;;1536148;76;1167;-69
2023/02/04 08:22:31;;;;;;;;;;;20.40;53.40;;;;;;1533091;76;705;-69
2023/02/04 08:24:33;;;;;;;;;;;20.30;53.40;;;;;;1536935;76;861;-67
2023/02/04 08:26:35;;;;;;;;;;;20.30;53.20;;;;;;1532585;76;724;-68
2023/02/04 08:28:37;;;;;;;;;;;20.40;53.10;;;;;;1537355;76;713;-67
2023/02/04 08:30:39;;;;;;;;;;;20.40;53.10;;;;;;1531406;76;1135;-67
2023/02/04 08:32:41;;;;;;;;;;;20.40;53.10;;;;;;1534341;76;788;-67
2023/02/04 08:34:43;;;;;;;;;;;20.40;53.10;;;;;;1532616;76;680;-67
2023/02/04 08:36:44;;;;;;;;;;;20.40;53.20;;;;;;1572707;74;1929;-68
2023/02/04 08:38:46;;;;;;;;;;;20.30;53.20;;;;;;1550092;75;716;-67
2023/02/04 08:40:48;;;;;;;;;;;20.40;53.30;;;;;;1553368;75;1091;-66
2023/02/04 08:42:50;;;;;;;;;;;20.40;53.30;;;;;;1551635;75;622;-67
2023/02/04 08:44:52;;;;;;;;;;;20.30;53.40;;;;;;1531992;76;726;-68
2023/02/04 08:46:54;;;;;;;;;;;20.30;53.50;;;;;;1562496;75;705;-67
2023/02/04 08:48:56;;;;;;;;;;;20.40;53.50;;;;;;1567557;74;645;-73
2023/02/04 08:50:57;;;;;;;;;;;20.40;53.60;;;;;;1562728;74;1129;-69
2023/02/04 08:52:59;;;;;;;;;;;20.30;53.60;;;;;;1552466;75;760;-65
2023/02/04 08:55:01;;;;;;;;;;;20.30;53.70;;;;;;1543358;75;1532;-66
2023/02/04 08:57:03;;;;;;;;;;;20.30;53.70;;;;;;1548311;75;1920;-67
2023/02/04 08:59:05;;;;;;;;;;;20.30;53.80;;;;;;1549040;75;712;-67
2023/02/04 09:01:07;;;;;;;;;;;20.30;53.90;;;;;;1541364;75;1144;-68
2023/02/04 09:03:09;;;;;;;;;;;20.30;53.90;;;;;;1547249;75;786;-68
2023/02/04 09:05:11;;;;;;;;;;;20.30;54.00;;;;;;1543571;75;636;-68
2023/02/04 09:07:12;;;;;;;;;;;20.30;54.00;;;;;;1545004;75;722;-67
2023/02/04 09:09:15;;;;;;;;;;;20.30;53.90;;;;;;1555930;75;787;-68
2023/02/04 09:11:16;;;;;;;;;;;20.30;53.90;;;;;;1557926;75;1091;-68
2023/02/04 09:13:18;;;;;;;;;;;20.30;54.00;;;;;;1533722;75;692;-68
2023/02/04 09:15:20;;;;;;;;;;;20.30;54.00;;;;;;1529290;75;712;-68
2023/02/04 09:17:22;;;;;;;;;;;20.30;54.00;;;;;;1561804;74;1925;-67
2023/02/04 09:19:24;;;;;;;;;;;20.30;53.90;;;;;;1531222;76;1139;-68
2023/02/04 09:21:26;;;;;;;;;;;20.30;53.90;;;;;;1563632;74;745;-68
2023/02/04 09:23:29;;;;;;;;;;;20.30;53.90;;;;;;1554463;75;786;-68
2023/02/04 09:25:31;;;;;;;;;;;20.30;53.90;;;;;;1552467;75;704;-68
2023/02/04 09:27:33;;;;;;;;;;;20.30;53.90;;;;;;1561434;74;808;-68
2023/02/04 09:29:34;;;;;;;;;;;20.30;53.80;;;;;;1536608;76;1125;-69
2023/02/04 09:31:37;;;;;;;;;;;20.30;53.80;;;;;;1563337;74;743;-67
2023/02/04 09:33:39;;;;;;;;;;;20.30;53.80;;;;;;1561511;74;750;-67
2023/02/04 09:35:41;;;;;;;;;;;20.40;53.80;;;;;;1560568;75;716;-68
2023/02/04 09:37:43;;;;;;;;;;;20.40;53.90;;;;;;1558845;74;1934;-68
2023/02/04 09:39:45;;;;;;;;;;;20.30;54.20;;;;;;1564610;75;1152;-67
2023/02/04 09:41:47;;;;;;;;;;;20.30;56.20;;;;;;1567960;74;810;-68
2023/02/04 09:43:49;;;;;;;;;;;20.20;57.90;;;;;;1557450;75;763;-67
2023/02/04 09:45:51;;;;;;;;;;;20.30;58.10;;;;;;1554498;75;793;-68
2023/02/04 09:47:53;;;;;;;;;;;20.30;57.30;;;;;;1554433;75;782;-67
2023/02/04 09:49:55;;;;;;;;;;;20.30;58.20;;;;;;1551980;75;1161;-67
2023/02/04 09:51:57;;;;;;;;;;;20.30;57.40;;;;;;1551899;75;1452;-68
2023/02/04 09:54:00;;;;;;;;;;;20.30;56.80;;;;;;1550045;75;745;-68
2023/02/04 09:56:02;;;;;;;;;;;20.30;56.30;;;;;;1548564;75;1007;-66
2023/02/04 09:58:05;;;;;;;;;;;20.30;59.10;;;;;;1546536;75;1931;-65
2023/02/04 10:00:12;;;;;;;;;;;20.30;58.10;;;;;;1543849;75;1731;-68
2023/02/04 10:02:15;;;;;;;;;;;20.30;59.50;;;;;;1541328;75;997;-64
2023/02/04 10:04:17;;;;;;;;;;;20.40;58.70;;;;;;1541019;75;1714;-71
2023/02/04 10:06:20;;;;;;;;;;;20.50;58.40;;;;;;1549960;75;795;-64
2023/02/04 10:08:23;;;;;;;;;;;20.50;57.50;;;;;;1553870;75;735;-66
2023/02/04 10:10:26;;;;;;;;;;;20.60;57.30;;;;;;1551306;75;1222;-73
2023/02/04 10:12:28;;;;;;;;;;;20.60;57.30;;;;;;1550737;75;715;-65
2023/02/04 10:14:30;;;;;;;;;;;20.60;57.10;;;;;;1567414;74;769;-65
2023/02/04 10:16:32;;;;;;;;;;;20.60;57.10;;;;;;1561371;74;687;-65
2023/02/04 10:18:34;;;;;;;;;;;20.60;56.90;;;;;;1537954;76;1931;-66
2023/02/04 10:20:36;;;;;;;;;;;20.50;58.10;;;;;;1508283;77;1153;-65
2023/02/04 10:22:38;;;;;;;;;;;20.60;57.30;;;;;;1550463;75;740;-65
2023/02/04 10:24:40;;;;;;;;;;;20.60;56.80;;;;;;1548919;75;707;-64
2023/02/04 10:26:42;;;;;;;;;;;20.60;56.70;;;;;;1556538;75;684;-64
2023/02/04 10:28:44;;;;;;;;;;;20.70;56.70;;;;;;1549987;75;673;-66
2023/02/04 10:30:46;;;;;;;;;;;20.70;56.80;;;;;;1554880;75;1149;-65
2023/02/04 10:32:48;;;;;;;;;;;20.70;56.80;;;;;;1555148;75;742;-66
2023/02/04 10:34:50;;;;;;;;;;;20.70;57.40;;;;;;1551102;75;622;-65
2023/02/04 10:36:53;;;;;;;;;;;20.70;56.90;;;;;;1554004;75;648;-68
2023/02/04 10:39:05;;;;;;;;;;;20.70;56.80;;;;;;1549840;75;1937;-66
2023/02/04 10:41:09;;;;;;;;;;;20.70;56.80;;;;;;1562032;74;1118;-65
2023/02/04 10:43:12;;;;;;;;;;;20.60;57.30;;;;;;1564209;74;1569;-68
2023/02/04 10:45:22;;;;;;;;;;;20.70;56.80;;;;;;1560351;74;1933;-66
2023/02/04 10:47:25;;;;;;;;;;;20.70;56.30;;;;;;1554387;74;1534;-66
2023/02/04 10:49:27;;;;;;;;;;;20.70;55.90;;;;;;1552897;75;1107;-68
2023/02/04 10:51:29;;;;;;;;;;;20.80;55.60;;;;;;1555670;75;743;-68
2023/02/04 10:55:50;;;;;;;;;;;20.80;55.40;;;;;;1556105;75;1659;-67
2023/02/04 10:57:52;;;;;;;;;;;20.70;55.20;;;;;;1552963;75;1939;-67
2023/02/04 10:59:58;;;;;;;;;;;20.80;55.30;;;;;;1552347;75;1154;-66
2023/02/04 11:02:00;;;;;;;;;;;20.80;55.20;;;;;;1554598;75;715;-66
2023/02/04 11:04:02;;;;;;;;;;;20.70;55.20;;;;;;1552871;75;721;-67
2023/02/04 11:06:06;;;;;;;;;;;20.70;55.10;;;;;;1562980;74;683;-67
2023/02/04 11:08:18;;;;;;;;;;;20.70;55.10;;;;;;1534637;76;751;-65
2023/02/04 11:10:21;;;;;;;;;;;20.70;55.10;;;;;;1547266;75;1636;-67
2023/02/04 11:12:33;;;;;;;;;;;20.70;55.20;;;;;;1559919;75;740;-69
2023/02/04 11:14:35;;;;;;;;;;;20.60;55.30;;;;;;1549619;75;1790;-65
2023/02/04 11:16:39;;;;;;;;;;;20.50;55.90;;;;;;1554824;75;684;-68
2023/02/04 11:18:46;;;;;;;;;;;20.50;57.10;;;;;;1552402;75;1936;-66
2023/02/04 11:20:48;;;;;;;;;;;20.40;58.30;;;;;;1533402;76;1155;-67
2023/02/04 11:22:52;;;;;;;;;;;20.50;58.50;;;;;;1524667;76;612;-67
2023/02/04 11:24:53;;;;;;;;;;;20.50;59.00;;;;;;1561963;74;1590;-68
2023/02/04 11:27:06;;;;;;;;;;;20.40;59.10;;;;;;1562676;74;651;-65
2023/02/04 11:29:09;;;;;;;;;;;20.40;59.20;;;;;;1551200;75;727;-66
2023/02/04 11:31:15;;;;;;;;;;;20.50;59.50;;;;;;1560589;75;1228;-67
2023/02/04 11:33:23;;;;;;;;;;;20.40;59.70;;;;;;1562641;75;703;-65
2023/02/04 11:35:27;;;;;;;;;;;20.40;59.70;;;;;;1543007;75;703;-65
2023/02/04 11:37:39;;;;;;;;;;;20.50;59.80;;;;;;1547580;75;1900;-65
2023/02/04 11:39:48;;;;;;;;;;;20.50;59.80;;;;;;1546776;76;1171;-68
2023/02/04 11:41:49;;;;;;;;;;;20.40;59.70;;;;;;1547307;75;826;-67
2023/02/04 11:43:51;;;;;;;;;;;20.40;59.90;;;;;;1556457;75;1403;-67
2023/02/04 11:46:12;;;;;;;;;;;20.50;59.80;;;;;;1567223;74;791;-69
2023/02/04 11:48:20;;;;;;;;;;;20.50;60.00;;;;;;1582947;75;690;-69
2023/02/04 11:50:27;;;;;;;;;;;20.50;59.90;;;;;;1543176;75;1178;-66
2023/02/04 11:52:29;;;;;;;;;;;20.50;59.90;;;;;;1551817;75;763;-64
2023/02/04 11:54:31;;;;;;;;;;;20.50;59.80;;;;;;1546039;75;783;-71
2023/02/04 11:56:33;;;;;;;;;;;20.50;59.80;;;;;;1556118;75;715;-68
2023/02/04 11:58:35;;;;;;;;;;;20.60;59.70;;;;;;1561037;75;1938;-66
2023/02/04 12:00:37;;;;;;;;;;;20.50;59.70;;;;;;1526195;76;1150;-68
2023/02/04 12:02:43;;;;;;;;;;;20.60;59.60;;;;;;1549017;75;755;-68
2023/02/04 12:04:56;;;;;;;;;;;20.50;59.70;;;;;;1548108;75;754;-68
2023/02/04 12:07:02;;;;;;;;;;;20.50;59.60;;;;;;1550126;75;1074;-69
2023/02/04 12:09:05;;;;;;;;;;;20.50;59.50;;;;;;1553190;75;691;-72
2023/02/04 12:11:10;;;;;;;;;;;20.50;59.50;;;;;;1546106;75;1640;-71
2023/02/04 12:13:12;;;;;;;;;;;20.60;59.10;;;;;;1549082;74;747;-76